Morning Charlotte — 3EMA2 — position and weather

sailwx.info

Track history (hours):
 
Tides and Currents Weather Stations Pressure Air Temp Water Temp Dewpoint Dewpoint Depression Visibility Wind Speed Wind Dir Waves Ship Positions

Morning Charlotte

Last reported at 2018-Apr-21 02:00 UTC. Time now 2018-Apr-21 02:09 UTC.
Position N 50°30' E 000°57'.

Length 200 m; draft 8.5 m.

Type: Cargo ship. MMSI: 357275000.

Date/timePositionNaut miles runAvg speedWind from/ knotsBaromVisibWave heightAir tempDewpointWater temp
2018-Apr-21 02:00N 50°30' E 000°57'1019.4
2018-Apr-21 01:30N 50°27' E 000°42'1019.9
2018-Apr-21 01:00N 50°24' E 000°27'1020.3
2018-Apr-21 00:30N 50°20' E 000°12'1020.3
2018-Apr-21 00:00N 50°20' W 000°03'1020.9
2018-Apr-20 23:30N 50°18' W 000°19'1121.2
2018-Apr-20 23:00N 50°15' W 000°35'1121.2
2018-Apr-20 22:30N 50°11' W 000°51'1021.1
2018-Apr-20 22:00N 50°08' W 001°06'1020.8
2018-Apr-20 21:30N 50°05' W 001°22'1020.3
2018-Apr-20 21:00N 50°03' W 001°37'1019.7
2018-Apr-20 20:30N 50°00' W 001°52'919.1
2018-Apr-20 20:00N 49°58' W 002°07'918.2
2018-Apr-20 19:30N 49°55' W 002°20'917.9
2018-Apr-20 19:00N 49°53' W 002°34'917.7
2018-Apr-20 18:30N 49°51' W 002°47'917.4
2018-Apr-20 18:00N 49°49' W 003°00'917.2
2018-Apr-20 17:30N 49°48' W 003°13'917.3
2018-Apr-20 17:00N 49°47' W 003°27'917.1
2018-Apr-20 16:29N 49°47' W 003°41'817.2
2018-Apr-20 16:00N 49°47' W 003°53'917.2
2018-Apr-20 15:30N 49°47' W 004°06'1017.1
2018-Apr-20 14:55N 49°46' W 004°22'717.1
2018-Apr-20 14:30N 49°46' W 004°33'1017.0
2018-Apr-20 13:57N 49°45' W 004°48'816.6
2018-Apr-20 13:28N 49°45' W 004°60'816.9
2018-Apr-20 12:59N 49°46' W 005°12'917.2
2018-Apr-20 12:28N 49°48' W 005°26'817.4
2018-Apr-20 12:00N 49°49' W 005°38'917.9
2018-Apr-20 11:30N 49°51' W 005°52'816.0
2018-Apr-20 11:00N 49°56' W 006°01'1020.0
2018-Apr-20 10:30N 50°06' W 006°02'1019.1
2018-Apr-20 10:00N 50°15' W 006°01'917.4
2018-Apr-20 09:30N 50°24' W 006°00'816.5
2018-Apr-20 09:00N 50°30' W 005°51'816.1
2018-Apr-20 08:30N 50°36' W 005°43'815.7
2018-Apr-20 08:00N 50°42' W 005°35'815.5
2018-Apr-20 07:30N 50°48' W 005°27'815.4
2018-Apr-20 07:00N 50°54' W 005°19'815.4
2018-Apr-20 06:30N 50°60' W 005°12'815.4
2018-Apr-20 06:00N 51°06' W 005°04'815.4
2018-Apr-20 05:30N 51°11' W 004°55'815.1
2018-Apr-20 05:00N 51°16' W 004°46'814.9
2018-Apr-20 04:30N 51°17' W 004°34'815.7
2018-Apr-20 04:00N 51°18' W 004°22'816.0
2018-Apr-20 03:30N 51°18' W 004°09'816.7
2018-Apr-20 03:00N 51°19' W 003°56'918.2
2018-Apr-20 02:30N 51°20' W 003°42'918.1
2018-Apr-20 02:01N 51°21' W 003°27'815.7
2018-Apr-20 01:30N 51°21' W 003°15'611.5
2018-Apr-20 01:00N 51°22' W 003°06'917.1
2018-Apr-20 00:31N 51°28' W 002°55'714.4
2018-Apr-20 00:00N 51°30' W 002°44'0 0.8
2018-Apr-19 23:30N 51°30' W 002°44'0 0.9
2018-Apr-19 23:00N 51°30' W 002°43'0 0.0
2018-Apr-19 22:30N 51°30' W 002°43'0 0.0
2018-Apr-19 22:00N 51°30' W 002°43'0 0.0
2018-Apr-19 21:30N 51°30' W 002°43'0 0.0
2018-Apr-19 21:00N 51°30' W 002°43'0 0.0
2018-Apr-19 20:30N 51°30' W 002°43'0 0.0
2018-Apr-19 20:00N 51°30' W 002°43'0 0.0
2018-Apr-19 19:30N 51°30' W 002°43'0 0.0
2018-Apr-19 19:00N 51°30' W 002°43'0 0.0
2018-Apr-19 18:30N 51°30' W 002°43'0 0.0
2018-Apr-19 18:00N 51°30' W 002°43'0 0.0
2018-Apr-19 17:30N 51°30' W 002°43'0 0.0
2018-Apr-19 17:00N 51°30' W 002°43'0 0.0
2018-Apr-19 16:30N 51°30' W 002°43'0 0.0
2018-Apr-19 16:00N 51°30' W 002°43'0 0.0
2018-Apr-19 15:30N 51°30' W 002°43'0 0.0
2018-Apr-19 15:00N 51°30' W 002°43'0 0.0
2018-Apr-19 14:30N 51°30' W 002°43'0 0.0
2018-Apr-19 14:00N 51°30' W 002°43'0 0.0
2018-Apr-19 13:30N 51°30' W 002°43'0 0.0
2018-Apr-19 13:00N 51°30' W 002°43'0 0.0
2018-Apr-19 12:30N 51°30' W 002°43'0 0.0
2018-Apr-19 12:00N 51°30' W 002°43'0 0.0
2018-Apr-19 11:30N 51°30' W 002°43'0 0.0
2018-Apr-19 11:00N 51°30' W 002°43'0 0.0
2018-Apr-19 10:30N 51°30' W 002°43'0 0.0
2018-Apr-19 10:00N 51°30' W 002°43'0 0.0
2018-Apr-19 09:30N 51°30' W 002°43'0 0.0
2018-Apr-19 09:00N 51°30' W 002°43'0 0.0
2018-Apr-19 08:30N 51°30' W 002°43'0 0.0
2018-Apr-19 08:00N 51°30' W 002°43'0 0.0
2018-Apr-19 07:31N 51°30' W 002°43'0 0.7
2018-Apr-19 07:01N 51°30' W 002°43'0 0.8
2018-Apr-19 06:31N 51°30' W 002°44'1 1.4
2018-Apr-19 06:00N 51°30' W 002°45'815.1
2018-Apr-19 05:30N 51°27' W 002°56'918.4
2018-Apr-19 05:00N 51°22' W 003°08'713.7
2018-Apr-19 04:30N 51°21' W 003°19'4 7.7
2018-Apr-19 04:00N 51°21' W 003°25'812.0
2018-Apr-19 03:19N 51°19' W 003°38'412.5
2018-Apr-19 03:00N 51°19' W 003°44'612.7
2018-Apr-19 02:31N 51°19' W 003°54'613.0
2018-Apr-19 02:01N 51°19' W 004°05'713.4
2018-Apr-19 01:30N 51°19' W 004°16'713.2
2018-Apr-19 00:59N 51°18' W 004°26'613.1
2018-Apr-19 00:31N 51°18' W 004°36'612.6
2018-Apr-19 00:00N 51°17' W 004°46'612.3
2018-Apr-18 23:30N 51°14' W 004°55'612.8
2018-Apr-18 23:01N 51°10' W 005°02'612.5
2018-Apr-18 22:30N 51°05' W 005°09'612.4
2018-Apr-18 22:01N 51°01' W 005°16'612.2
2018-Apr-18 21:31N 50°57' W 005°24'612.4
2018-Apr-18 21:00N 50°53' W 005°31'612.7
2018-Apr-18 20:30N 50°48' W 005°38'713.2
2018-Apr-18 19:59N 50°44' W 005°46'713.5
2018-Apr-18 19:30N 50°39' W 005°54'713.7
2018-Apr-18 19:01N 50°35' W 006°02'1014.1
2018-Apr-18 18:17N 50°27' W 006°12'815.0
2018-Apr-18 17:46N 50°22' W 006°21'36815.9
2018-Apr-17 18:40N 44°16' W 007°30'315.8
2018-Apr-17 18:29N 44°14' W 007°31'917.0
2018-Apr-17 17:57N 44°12' W 007°43'817.2
2018-Apr-17 17:30N 44°10' W 007°54'32315.1
2018-Apr-16 20:10N 39°10' W 010°35'417.1
2018-Apr-16 19:57N 39°07' W 010°35'817.0
2018-Apr-16 19:29N 38°59' W 010°35'1817.2
2018-Apr-16 18:24N 38°40' W 010°34'1817.1
2018-Apr-16 17:20N 38°22' W 010°29'717.1
2018-Apr-16 16:57N 38°16' W 010°28'26914.2
2018-Apr-15 21:58N 35°57' W 005°39'715.5
2018-Apr-15 21:30N 35°59' W 005°30'713.9
2018-Apr-15 21:00N 36°01' W 005°22'714.2
2018-Apr-15 20:30N 36°02' W 005°13'915.7
2018-Apr-15 19:58N 36°03' W 005°03'714.6
2018-Apr-15 19:30N 36°02' W 004°55'18314.9
2018-Apr-15 07:13N 36°47' W 001°14'416.7
2018-Apr-15 06:59N 36°50' W 001°10'1416.9
2018-Apr-15 06:11N 36°59' W 000°57'916.8
2018-Apr-15 05:40N 37°04' W 000°49'717.0
2018-Apr-15 05:15N 37°09' W 000°42'1316.6
2018-Apr-15 04:27N 37°18' W 000°30'817.0
2018-Apr-15 03:59N 37°23' W 000°22'817.0
2018-Apr-15 03:30N 37°28' W 000°14'816.8
2018-Apr-15 03:00N 37°35' W 000°08'11614.7
2018-Apr-14 19:09N 39°30' W 000°05'215.0
2018-Apr-14 19:00N 39°32' W 000°07'612.4
2018-Apr-14 18:29N 39°37' W 000°12'1 1.8
2018-Apr-14 17:48N 39°38' W 000°13'0 0.0
2018-Apr-14 17:18N 39°38' W 000°13'0 0.0
2018-Apr-14 17:00N 39°38' W 000°13'0 0.0
2018-Apr-14 16:30N 39°38' W 000°13'0 0.0
2018-Apr-14 15:54N 39°38' W 000°13'0 0.0
2018-Apr-14 15:30N 39°38' W 000°13'0 0.0
2018-Apr-14 12:00N 39°38' W 000°13'0 0.0
2018-Apr-14 11:30N 39°38' W 000°13'0 0.0
2018-Apr-14 08:00N 39°38' W 000°13'0 0.0
2018-Apr-14 04:42N 39°38' W 000°13'0 0.0
2018-Apr-14 04:30N 39°38' W 000°13'1 1.4
2018-Apr-14 04:00N 39°38' W 000°13'3 6.7
2018-Apr-14 03:30N 39°36' W 000°09'712.2
2018-Apr-14 02:57N 39°34' W 000°00'10510.7
2018-Apr-13 17:04N 39°10' E 002°12'215.3
2018-Apr-13 16:55N 39°09' E 002°15'915.2
2018-Apr-13 16:20N 39°05' E 002°26'514.6
2018-Apr-13 16:00N 39°03' E 002°31'713.9
2018-Apr-13 15:30N 39°01' E 002°39'714.0
2018-Apr-13 15:00N 38°58' E 002°48'914.4
2018-Apr-13 14:22N 38°54' E 002°59'514.0
2018-Apr-13 14:00N 38°54' E 003°05'50613.8
2018-Apr-12 01:15N 36°56' E 013°29'415.2
2018-Apr-12 01:00N 36°54' E 013°33'917.5
2018-Apr-12 00:30N 36°49' E 013°43'1617.5
2018-Apr-11 23:37N 36°42' E 013°60'416.8
2018-Apr-11 23:23N 36°40' E 014°04'616.7
2018-Apr-11 23:00N 36°37' E 014°11'916.6
2018-Apr-11 22:28N 36°32' E 014°21'917.9
2018-Apr-11 21:59N 36°28' E 014°30'815.9
2018-Apr-11 21:30N 36°24' E 014°38'816.9
2018-Apr-11 21:00N 36°20' E 014°47'  
Track history (hours):
 
Tides and Currents Weather Stations Pressure Air Temp Water Temp Dewpoint Dewpoint Depression Visibility Wind Speed Wind Dir Waves Ship Positions

Morning Charlotte

Last reported at 2018-Apr-21 02:00 UTC. Time now 2018-Apr-21 02:09 UTC.
Position N 50°30' E 000°57'.

Length 200 m; draft 8.5 m.

Type: Cargo ship. MMSI: 357275000.

Date/timePositionNaut miles runAvg speedWind from/ knotsBaromVisibWave heightAir tempDewpointWater temp
2018-Apr-21 02:00N 50°30' E 000°57'1019.4
2018-Apr-21 01:30N 50°27' E 000°42'1019.9
2018-Apr-21 01:00N 50°24' E 000°27'1020.3
2018-Apr-21 00:30N 50°20' E 000°12'1020.3
2018-Apr-21 00:00N 50°20' W 000°03'1020.9
2018-Apr-20 23:30N 50°18' W 000°19'1121.2
2018-Apr-20 23:00N 50°15' W 000°35'1121.2
2018-Apr-20 22:30N 50°11' W 000°51'1021.1
2018-Apr-20 22:00N 50°08' W 001°06'1020.8
2018-Apr-20 21:30N 50°05' W 001°22'1020.3
2018-Apr-20 21:00N 50°03' W 001°37'1019.7
2018-Apr-20 20:30N 50°00' W 001°52'919.1
2018-Apr-20 20:00N 49°58' W 002°07'918.2
2018-Apr-20 19:30N 49°55' W 002°20'917.9
2018-Apr-20 19:00N 49°53' W 002°34'917.7
2018-Apr-20 18:30N 49°51' W 002°47'917.4
2018-Apr-20 18:00N 49°49' W 003°00'917.2
2018-Apr-20 17:30N 49°48' W 003°13'917.3
2018-Apr-20 17:00N 49°47' W 003°27'917.1
2018-Apr-20 16:29N 49°47' W 003°41'817.2
2018-Apr-20 16:00N 49°47' W 003°53'917.2
2018-Apr-20 15:30N 49°47' W 004°06'1017.1
2018-Apr-20 14:55N 49°46' W 004°22'717.1
2018-Apr-20 14:30N 49°46' W 004°33'1017.0
2018-Apr-20 13:57N 49°45' W 004°48'816.6
2018-Apr-20 13:28N 49°45' W 004°60'816.9
2018-Apr-20 12:59N 49°46' W 005°12'917.2
2018-Apr-20 12:28N 49°48' W 005°26'817.4
2018-Apr-20 12:00N 49°49' W 005°38'917.9
2018-Apr-20 11:30N 49°51' W 005°52'816.0
2018-Apr-20 11:00N 49°56' W 006°01'1020.0
2018-Apr-20 10:30N 50°06' W 006°02'1019.1
2018-Apr-20 10:00N 50°15' W 006°01'917.4
2018-Apr-20 09:30N 50°24' W 006°00'816.5
2018-Apr-20 09:00N 50°30' W 005°51'816.1
2018-Apr-20 08:30N 50°36' W 005°43'815.7
2018-Apr-20 08:00N 50°42' W 005°35'815.5
2018-Apr-20 07:30N 50°48' W 005°27'815.4
2018-Apr-20 07:00N 50°54' W 005°19'815.4
2018-Apr-20 06:30N 50°60' W 005°12'815.4
2018-Apr-20 06:00N 51°06' W 005°04'815.4
2018-Apr-20 05:30N 51°11' W 004°55'815.1
2018-Apr-20 05:00N 51°16' W 004°46'814.9
2018-Apr-20 04:30N 51°17' W 004°34'815.7
2018-Apr-20 04:00N 51°18' W 004°22'816.0
2018-Apr-20 03:30N 51°18' W 004°09'816.7
2018-Apr-20 03:00N 51°19' W 003°56'918.2
2018-Apr-20 02:30N 51°20' W 003°42'918.1
2018-Apr-20 02:01N 51°21' W 003°27'815.7
2018-Apr-20 01:30N 51°21' W 003°15'611.5
2018-Apr-20 01:00N 51°22' W 003°06'917.1
2018-Apr-20 00:31N 51°28' W 002°55'714.4
2018-Apr-20 00:00N 51°30' W 002°44'0 0.8
2018-Apr-19 23:30N 51°30' W 002°44'0 0.9
2018-Apr-19 23:00N 51°30' W 002°43'0 0.0
2018-Apr-19 22:30N 51°30' W 002°43'0 0.0
2018-Apr-19 22:00N 51°30' W 002°43'0 0.0
2018-Apr-19 21:30N 51°30' W 002°43'0 0.0
2018-Apr-19 21:00N 51°30' W 002°43'0 0.0
2018-Apr-19 20:30N 51°30' W 002°43'0 0.0
2018-Apr-19 20:00N 51°30' W 002°43'0 0.0
2018-Apr-19 19:30N 51°30' W 002°43'0 0.0
2018-Apr-19 19:00N 51°30' W 002°43'0 0.0
2018-Apr-19 18:30N 51°30' W 002°43'0 0.0
2018-Apr-19 18:00N 51°30' W 002°43'0 0.0
2018-Apr-19 17:30N 51°30' W 002°43'0 0.0
2018-Apr-19 17:00N 51°30' W 002°43'0 0.0
2018-Apr-19 16:30N 51°30' W 002°43'0 0.0
2018-Apr-19 16:00N 51°30' W 002°43'0 0.0
2018-Apr-19 15:30N 51°30' W 002°43'0 0.0
2018-Apr-19 15:00N 51°30' W 002°43'0 0.0
2018-Apr-19 14:30N 51°30' W 002°43'0 0.0
2018-Apr-19 14:00N 51°30' W 002°43'0 0.0
2018-Apr-19 13:30N 51°30' W 002°43'0 0.0
2018-Apr-19 13:00N 51°30' W 002°43'0 0.0
2018-Apr-19 12:30N 51°30' W 002°43'0 0.0
2018-Apr-19 12:00N 51°30' W 002°43'0 0.0
2018-Apr-19 11:30N 51°30' W 002°43'0 0.0
2018-Apr-19 11:00N 51°30' W 002°43'0 0.0
2018-Apr-19 10:30N 51°30' W 002°43'0 0.0
2018-Apr-19 10:00N 51°30' W 002°43'0 0.0
2018-Apr-19 09:30N 51°30' W 002°43'0 0.0
2018-Apr-19 09:00N 51°30' W 002°43'0 0.0
2018-Apr-19 08:30N 51°30' W 002°43'0 0.0
2018-Apr-19 08:00N 51°30' W 002°43'0 0.0
2018-Apr-19 07:31N 51°30' W 002°43'0 0.7
2018-Apr-19 07:01N 51°30' W 002°43'0 0.8
2018-Apr-19 06:31N 51°30' W 002°44'1 1.4
2018-Apr-19 06:00N 51°30' W 002°45'815.1
2018-Apr-19 05:30N 51°27' W 002°56'918.4
2018-Apr-19 05:00N 51°22' W 003°08'713.7
2018-Apr-19 04:30N 51°21' W 003°19'4 7.7
2018-Apr-19 04:00N 51°21' W 003°25'812.0
2018-Apr-19 03:19N 51°19' W 003°38'412.5
2018-Apr-19 03:00N 51°19' W 003°44'612.7
2018-Apr-19 02:31N 51°19' W 003°54'613.0
2018-Apr-19 02:01N 51°19' W 004°05'713.4
2018-Apr-19 01:30N 51°19' W 004°16'713.2
2018-Apr-19 00:59N 51°18' W 004°26'613.1
2018-Apr-19 00:31N 51°18' W 004°36'612.6
2018-Apr-19 00:00N 51°17' W 004°46'612.3
2018-Apr-18 23:30N 51°14' W 004°55'612.8
2018-Apr-18 23:01N 51°10' W 005°02'612.5
2018-Apr-18 22:30N 51°05' W 005°09'612.4
2018-Apr-18 22:01N 51°01' W 005°16'612.2
2018-Apr-18 21:31N 50°57' W 005°24'612.4
2018-Apr-18 21:00N 50°53' W 005°31'612.7
2018-Apr-18 20:30N 50°48' W 005°38'713.2
2018-Apr-18 19:59N 50°44' W 005°46'713.5
2018-Apr-18 19:30N 50°39' W 005°54'713.7
2018-Apr-18 19:01N 50°35' W 006°02'1014.1
2018-Apr-18 18:17N 50°27' W 006°12'815.0
2018-Apr-18 17:46N 50°22' W 006°21'36815.9
2018-Apr-17 18:40N 44°16' W 007°30'315.8
2018-Apr-17 18:29N 44°14' W 007°31'917.0
2018-Apr-17 17:57N 44°12' W 007°43'817.2
2018-Apr-17 17:30N 44°10' W 007°54'32315.1
2018-Apr-16 20:10N 39°10' W 010°35'417.1
2018-Apr-16 19:57N 39°07' W 010°35'817.0
2018-Apr-16 19:29N 38°59' W 010°35'1817.2
2018-Apr-16 18:24N 38°40' W 010°34'1817.1
2018-Apr-16 17:20N 38°22' W 010°29'717.1
2018-Apr-16 16:57N 38°16' W 010°28'26914.2
2018-Apr-15 21:58N 35°57' W 005°39'715.5
2018-Apr-15 21:30N 35°59' W 005°30'713.9
2018-Apr-15 21:00N 36°01' W 005°22'714.2
2018-Apr-15 20:30N 36°02' W 005°13'915.7
2018-Apr-15 19:58N 36°03' W 005°03'714.6
2018-Apr-15 19:30N 36°02' W 004°55'18314.9
2018-Apr-15 07:13N 36°47' W 001°14'416.7
2018-Apr-15 06:59N 36°50' W 001°10'1416.9
2018-Apr-15 06:11N 36°59' W 000°57'916.8
2018-Apr-15 05:40N 37°04' W 000°49'717.0
2018-Apr-15 05:15N 37°09' W 000°42'1316.6
2018-Apr-15 04:27N 37°18' W 000°30'817.0
2018-Apr-15 03:59N 37°23' W 000°22'817.0
2018-Apr-15 03:30N 37°28' W 000°14'816.8
2018-Apr-15 03:00N 37°35' W 000°08'11614.7
2018-Apr-14 19:09N 39°30' W 000°05'215.0
2018-Apr-14 19:00N 39°32' W 000°07'612.4
2018-Apr-14 18:29N 39°37' W 000°12'1 1.8
2018-Apr-14 17:48N 39°38' W 000°13'0 0.0
2018-Apr-14 17:18N 39°38' W 000°13'0 0.0
2018-Apr-14 17:00N 39°38' W 000°13'0 0.0
2018-Apr-14 16:30N 39°38' W 000°13'0 0.0
2018-Apr-14 15:54N 39°38' W 000°13'0 0.0
2018-Apr-14 15:30N 39°38' W 000°13'0 0.0
2018-Apr-14 12:00N 39°38' W 000°13'0 0.0
2018-Apr-14 11:30N 39°38' W 000°13'0 0.0
2018-Apr-14 08:00N 39°38' W 000°13'0 0.0
2018-Apr-14 04:42N 39°38' W 000°13'0 0.0
2018-Apr-14 04:30N 39°38' W 000°13'1 1.4
2018-Apr-14 04:00N 39°38' W 000°13'3 6.7
2018-Apr-14 03:30N 39°36' W 000°09'712.2
2018-Apr-14 02:57N 39°34' W 000°00'10510.7
2018-Apr-13 17:04N 39°10' E 002°12'215.3
2018-Apr-13 16:55N 39°09' E 002°15'915.2
2018-Apr-13 16:20N 39°05' E 002°26'514.6
2018-Apr-13 16:00N 39°03' E 002°31'713.9
2018-Apr-13 15:30N 39°01' E 002°39'714.0
2018-Apr-13 15:00N 38°58' E 002°48'914.4
2018-Apr-13 14:22N 38°54' E 002°59'514.0
2018-Apr-13 14:00N 38°54' E 003°05'50613.8
2018-Apr-12 01:15N 36°56' E 013°29'415.2
2018-Apr-12 01:00N 36°54' E 013°33'917.5
2018-Apr-12 00:30N 36°49' E 013°43'1617.5
2018-Apr-11 23:37N 36°42' E 013°60'416.8
2018-Apr-11 23:23N 36°40' E 014°04'616.7
2018-Apr-11 23:00N 36°37' E 014°11'916.6
2018-Apr-11 22:28N 36°32' E 014°21'917.9
2018-Apr-11 21:59N 36°28' E 014°30'815.9
2018-Apr-11 21:30N 36°24' E 014°38'816.9
2018-Apr-11 21:00N 36°20' E 014°47'  

Dump ship's entire track history